createdAt,value
2019-02-12T00:01:02.822Z,76.85
2019-02-12T00:03:35.072Z,76.44
2019-02-12T00:06:07.179Z,75.50
2019-02-12T00:08:38.983Z,75.19
2019-02-12T00:11:10.852Z,74.86
2019-02-12T00:13:42.689Z,74.10
2019-02-12T00:16:14.555Z,74.62
2019-02-12T00:18:46.604Z,74.73
2019-02-12T00:21:18.496Z,73.04
2019-02-12T00:23:50.627Z,72.98
2019-02-12T00:26:22.495Z,73.36
2019-02-12T00:28:54.552Z,74.08
2019-02-12T00:31:26.530Z,73.93
2019-02-12T00:33:58.545Z,73.88
2019-02-12T00:36:30.958Z,73.28
2019-02-12T00:39:02.939Z,73.83
2019-02-12T00:41:36.476Z,72.97
2019-02-12T00:44:08.277Z,72.64
2019-02-12T00:46:40.208Z,72.35
2019-02-12T00:49:11.932Z,71.78
2019-02-12T00:51:45.009Z,71.69
2019-02-12T00:54:16.982Z,71.96
2019-02-12T00:56:49.094Z,72.47
2019-02-12T00:59:21.105Z,72.30
2019-02-12T01:01:53.765Z,72.16
2019-02-12T01:04:25.846Z,72.92
2019-02-12T01:06:57.685Z,72.61
2019-02-12T01:09:29.494Z,73.08
2019-02-12T01:12:01.680Z,72.99
2019-02-12T01:14:33.858Z,72.55
2019-02-12T01:17:05.797Z,73.03
2019-02-12T01:19:38.819Z,72.91
2019-02-12T01:22:11.082Z,73.00
2019-02-12T01:24:43.249Z,73.00
2019-02-12T01:27:14.977Z,73.32
2019-02-12T01:29:46.909Z,73.53
2019-02-12T01:32:19.255Z,73.40
2019-02-12T01:34:51.297Z,73.85
2019-02-12T01:37:23.517Z,73.96
2019-02-12T01:39:55.673Z,74.44
2019-02-12T01:42:27.730Z,74.27
2019-02-12T01:44:59.629Z,74.60
2019-02-12T01:47:32.068Z,74.77
2019-02-12T01:50:04.207Z,74.28
2019-02-12T01:52:36.385Z,74.35
2019-02-12T01:55:08.694Z,74.35
2019-02-12T01:57:40.773Z,74.67
2019-02-12T02:00:15.378Z,74.90
2019-02-12T02:02:48.158Z,74.94
2019-02-12T02:05:20.120Z,74.55
2019-02-12T02:07:52.426Z,75.15
2019-02-12T02:10:27.516Z,75.28
2019-02-12T02:12:59.446Z,74.78
2019-02-12T02:15:32.516Z,74.60
2019-02-12T02:18:04.415Z,74.72
2019-02-12T02:31:31.339Z,71.45
2019-02-12T02:34:03.849Z,71.72
2019-02-12T02:36:35.802Z,72.69
2019-02-12T02:39:09.652Z,72.80
2019-02-12T02:41:43.736Z,73.03
2019-02-12T02:44:17.699Z,73.04
2019-02-12T02:46:51.678Z,73.70
2019-02-12T02:49:25.253Z,73.67
2019-02-12T02:51:58.891Z,74.51
2019-02-12T02:54:32.457Z,73.92
2019-02-12T02:57:06.073Z,74.01
2019-02-12T02:59:52.490Z,74.22
2019-02-12T03:02:38.647Z,74.20
2019-02-12T03:05:21.169Z,73.43
2019-02-12T03:07:54.840Z,73.69
2019-02-12T03:10:29.042Z,74.18
2019-02-12T03:13:03.938Z,73.89
2019-02-12T03:15:37.979Z,73.52
2019-02-12T03:18:12.052Z,73.67
2019-02-12T03:20:46.055Z,74.04
2019-02-12T03:23:20.061Z,73.46
2019-02-12T03:25:53.945Z,73.45
2019-02-12T03:28:27.891Z,73.38
2019-02-12T03:31:01.596Z,73.56
2019-02-12T03:33:35.348Z,73.24
2019-02-12T03:36:09.533Z,73.64
2019-02-12T03:38:43.654Z,73.73
2019-02-12T03:41:17.195Z,74.21
2019-02-12T03:43:50.878Z,74.64
2019-02-12T03:46:25.560Z,74.97
2019-02-12T03:48:58.908Z,75.14
2019-02-12T03:51:33.249Z,75.50
2019-02-12T03:54:07.827Z,75.08
2019-02-12T03:56:43.037Z,75.32
2019-02-12T03:59:29.944Z,75.81
2019-02-12T04:02:15.305Z,73.72
2019-02-12T04:05:01.235Z,73.34
2019-02-12T04:07:35.993Z,75.00
2019-02-12T04:10:10.986Z,75.24
2019-02-12T04:12:45.363Z,74.23
2019-02-12T04:15:19.924Z,74.42
2019-02-12T04:17:54.950Z,74.49
2019-02-12T04:20:30.083Z,74.84
2019-02-12T04:23:04.906Z,74.71
2019-02-12T04:25:40.161Z,74.02
2019-02-12T04:28:16.348Z,71.73
2019-02-12T04:30:52.937Z,70.92
2019-02-12T04:33:27.449Z,71.95
2019-02-12T04:36:01.763Z,72.07
2019-02-12T04:38:37.140Z,71.53
2019-02-12T04:41:11.774Z,71.91
2019-02-12T04:43:48.151Z,72.54
2019-02-12T04:46:24.190Z,72.50
2019-02-12T04:48:59.251Z,73.10
2019-02-12T04:51:34.553Z,72.51
2019-02-12T04:54:08.880Z,72.89
2019-02-12T04:56:43.034Z,72.83
2019-02-12T04:59:17.456Z,73.49
2019-02-12T05:01:52.469Z,74.34
2019-02-12T05:04:39.253Z,75.10
2019-02-12T05:07:25.704Z,75.08
2019-02-12T05:10:01.617Z,74.57
2019-02-12T05:12:35.804Z,74.45
2019-02-12T05:15:10.661Z,74.99
2019-02-12T05:17:44.253Z,75.16
2019-02-12T05:20:18.202Z,75.69
2019-02-12T05:22:52.315Z,75.94
2019-02-12T05:25:26.508Z,76.28
2019-02-12T05:28:00.383Z,76.59
2019-02-12T05:30:35.097Z,77.14
2019-02-12T05:33:10.505Z,77.32
2019-02-12T05:35:45.368Z,77.64
2019-02-12T05:38:20.381Z,78.03
2019-02-12T05:40:55.163Z,78.18
2019-02-12T05:43:28.972Z,77.86
2019-02-12T05:46:03.243Z,77.71
2019-02-12T05:48:37.327Z,77.86
2019-02-12T05:51:11.806Z,77.35
2019-02-12T05:53:48.415Z,76.72
2019-02-12T05:56:24.230Z,76.95
2019-02-12T05:58:58.185Z,77.50
2019-02-12T06:01:32.606Z,76.93
2019-02-12T06:04:15.759Z,76.33
2019-02-12T06:06:50.108Z,75.58
2019-02-12T06:09:28.883Z,75.07
2019-02-12T06:12:03.178Z,74.90
2019-02-12T06:14:37.355Z,73.55
2019-02-12T06:17:21.103Z,73.22
2019-02-12T06:19:55.770Z,72.68
2019-02-12T06:22:30.737Z,72.65
2019-02-12T06:25:08.023Z,72.65
2019-02-12T06:27:42.920Z,71.86
2019-02-12T06:30:17.814Z,72.42
2019-02-12T06:32:51.835Z,72.35
2019-02-12T06:35:25.953Z,71.79
2019-02-12T06:38:00.082Z,71.19
2019-02-12T06:40:33.894Z,70.86
2019-02-12T06:43:09.187Z,71.21
2019-02-12T06:45:42.699Z,71.68
2019-02-12T06:48:16.980Z,71.38
2019-02-12T06:50:52.034Z,71.24
2019-02-12T06:53:25.714Z,71.70
2019-02-12T06:56:01.047Z,71.41
2019-02-12T06:58:35.678Z,71.26
2019-02-12T07:01:10.340Z,70.78
2019-02-12T07:03:59.186Z,70.91
2019-02-12T07:07:18.789Z,71.13
2019-02-12T07:10:02.493Z,72.14
2019-02-12T07:13:10.915Z,71.52
2019-02-12T07:15:55.470Z,72.67
2019-02-12T07:18:49.576Z,72.98
2019-02-12T07:22:05.701Z,72.90
2019-02-12T07:25:36.549Z,72.82
2019-02-12T07:28:42.660Z,73.03
2019-02-12T07:32:12.287Z,71.29
2019-02-12T07:35:18.018Z,70.92
2019-02-12T07:38:32.150Z,70.09
2019-02-12T07:41:20.674Z,69.35
2019-02-12T07:44:19.158Z,69.40
2019-02-12T07:47:19.380Z,68.98
2019-02-12T07:50:37.044Z,69.38
2019-02-12T07:53:39.755Z,69.09
2019-02-12T07:56:47.702Z,68.81
2019-02-12T07:59:44.434Z,68.14
2019-02-12T08:02:41.277Z,67.95
2019-02-12T08:05:57.698Z,68.28
2019-02-12T08:08:43.927Z,68.33
2019-02-12T08:12:17.695Z,68.79
2019-02-12T08:15:11.231Z,67.41
2019-02-12T08:18:02.607Z,66.70
2019-02-12T08:21:22.831Z,66.00
2019-02-12T08:24:36.783Z,65.34
2019-02-12T08:27:47.964Z,63.68
2019-02-12T08:30:51.644Z,65.98
2019-02-12T08:33:58.666Z,65.53
2019-02-12T08:36:52.142Z,65.80
2019-02-12T08:40:04.126Z,65.24
2019-02-12T08:43:06.056Z,66.04
2019-02-12T08:46:20.875Z,65.12
2019-02-12T08:49:36.159Z,65.97
2019-02-12T08:52:54.751Z,63.94
2019-02-12T08:56:01.943Z,65.26
2019-02-12T08:59:00.833Z,65.89
2019-02-12T09:02:14.236Z,64.85
2019-02-12T09:05:12.563Z,66.17
2019-02-12T09:08:28.294Z,65.71
2019-02-12T09:11:33.721Z,66.18
2019-02-12T09:14:26.237Z,64.22
2019-02-12T09:17:52.091Z,64.68
2019-02-12T09:20:57.220Z,63.87
2019-02-12T09:24:00.786Z,64.17
2019-02-12T09:26:57.385Z,63.99
2019-02-12T09:30:01.390Z,63.98
2019-02-12T09:32:58.934Z,64.31
2019-02-12T09:36:09.152Z,63.47
2019-02-12T09:39:22.699Z,61.15
2019-02-12T09:42:15.798Z,60.52
2019-02-12T09:45:09.317Z,60.23
2019-02-12T09:48:01.605Z,58.57
2019-02-12T09:51:02.971Z,58.06
2019-02-12T09:54:20.497Z,59.16
2019-02-12T09:57:56.764Z,59.74
2019-02-12T10:00:55.933Z,61.96
2019-02-12T10:04:24.625Z,61.50
2019-02-12T10:07:22.557Z,61.87
2019-02-12T10:10:34.343Z,62.30
2019-02-12T10:13:33.189Z,62.46
2019-02-12T10:16:59.750Z,63.77
2019-02-12T10:20:06.755Z,63.56
2019-02-12T10:23:27.834Z,63.65
2019-02-12T10:26:08.632Z,62.59
2019-02-12T10:29:17.275Z,61.13
2019-02-12T10:32:10.167Z,61.82
2019-02-12T10:34:44.668Z,62.87
2019-02-12T10:37:18.810Z,61.87
2019-02-12T10:39:52.896Z,61.91
2019-02-12T10:42:27.964Z,62.35
2019-02-12T10:45:01.804Z,63.58
2019-02-12T10:47:36.124Z,63.98
2019-02-12T10:50:10.290Z,62.85
2019-02-12T10:52:45.510Z,61.99
2019-02-12T10:55:30.203Z,61.44
2019-02-12T10:58:11.954Z,62.67
2019-02-12T11:00:46.969Z,62.38
2019-02-12T11:03:23.107Z,63.32
2019-02-12T11:06:00.173Z,61.79
2019-02-12T11:08:38.260Z,61.33
2019-02-12T11:11:21.004Z,62.69
2019-02-12T11:13:56.384Z,62.39
2019-02-12T11:16:32.632Z,60.95
2019-02-12T11:19:04.888Z,60.37
2019-02-12T11:21:37.048Z,61.62
2019-02-12T11:24:12.796Z,61.49
2019-02-12T11:26:47.214Z,60.28
2019-02-12T11:29:19.385Z,60.50
2019-02-12T11:32:03.935Z,58.99
2019-02-12T11:34:35.902Z,59.14
2019-02-12T11:37:07.867Z,59.90
2019-02-12T11:39:39.856Z,60.72
2019-02-12T11:42:11.695Z,60.78
2019-02-12T11:44:43.568Z,61.50
2019-02-12T11:47:15.495Z,60.88
2019-02-12T11:49:49.133Z,61.13
2019-02-12T11:52:23.024Z,61.18
2019-02-12T11:55:09.820Z,59.95
2019-02-12T11:57:55.855Z,60.56
2019-02-12T12:00:41.295Z,61.22
2019-02-12T12:03:15.611Z,61.21
2019-02-12T12:05:49.988Z,61.77
2019-02-12T12:08:24.386Z,62.21
2019-02-12T12:10:58.738Z,61.43
2019-02-12T12:13:31.017Z,61.62
2019-02-12T12:16:04.485Z,63.10
2019-02-12T12:18:38.438Z,64.30
2019-02-12T12:21:12.260Z,63.20
2019-02-12T12:23:49.041Z,63.22
2019-02-12T12:26:21.636Z,64.01
2019-02-12T12:28:58.088Z,63.97
2019-02-12T12:31:34.084Z,63.81
2019-02-12T12:34:08.650Z,62.78
2019-02-12T12:36:43.266Z,64.33
2019-02-12T12:39:18.174Z,65.16
2019-02-12T12:41:53.772Z,64.02
2019-02-12T12:44:28.891Z,63.67
2019-02-12T12:47:04.982Z,64.57
2019-02-12T12:49:39.781Z,64.42
2019-02-12T12:52:13.996Z,66.57
2019-02-12T12:54:48.035Z,66.08
2019-02-12T12:57:21.459Z,66.46
2019-02-12T12:59:56.330Z,67.20
2019-02-12T13:02:31.768Z,67.28
2019-02-12T13:05:06.210Z,68.75
2019-02-12T13:07:40.201Z,70.43
2019-02-12T13:10:26.687Z,66.72
2019-02-12T13:13:12.774Z,64.72
2019-02-12T13:15:58.706Z,63.05
2019-02-12T13:18:40.877Z,64.07
2019-02-12T13:21:25.294Z,64.47
2019-02-12T13:23:59.679Z,62.87
2019-02-12T13:26:37.054Z,63.43
2019-02-12T13:29:12.434Z,63.36
2019-02-12T13:31:46.679Z,64.45
2019-02-12T13:34:21.173Z,64.95
2019-02-12T13:36:55.450Z,64.51
2019-02-12T13:39:30.100Z,65.65
2019-02-12T13:42:04.934Z,65.90
2019-02-12T13:44:40.194Z,66.29
2019-02-12T13:47:15.957Z,65.84
2019-02-12T13:49:52.074Z,64.83
2019-02-12T13:52:27.262Z,65.62
2019-02-12T13:55:01.603Z,64.70
2019-02-12T13:57:35.645Z,64.74
2019-02-12T14:00:11.761Z,63.87
2019-02-12T14:02:46.733Z,64.89
2019-02-12T14:05:21.998Z,62.71
2019-02-12T14:07:57.259Z,62.71
2019-02-12T14:10:41.599Z,64.10
2019-02-12T14:13:16.340Z,62.81
2019-02-12T14:15:51.111Z,63.65
2019-02-12T14:18:26.892Z,63.61
2019-02-12T14:21:01.322Z,63.13
2019-02-12T14:23:36.041Z,63.95
2019-02-12T14:26:11.197Z,64.16
2019-02-12T14:28:45.446Z,63.74
2019-02-12T14:31:19.410Z,64.29
2019-02-12T14:33:53.479Z,62.94
2019-02-12T14:36:28.759Z,63.62
2019-02-12T14:39:06.570Z,64.32
2019-02-12T14:41:41.539Z,64.85
2019-02-12T14:44:17.021Z,64.00
2019-02-12T14:46:51.144Z,65.22
2019-02-12T14:49:25.286Z,65.54
2019-02-12T14:51:59.665Z,65.26
2019-02-12T14:54:44.638Z,65.45
2019-02-12T14:57:32.210Z,66.12
2019-02-12T15:00:18.282Z,65.60
2019-02-12T15:03:04.740Z,65.25
2019-02-12T15:05:39.702Z,66.88
2019-02-12T15:08:14.202Z,67.17
2019-02-12T15:10:48.870Z,67.66
2019-02-12T15:13:23.767Z,68.36
2019-02-12T15:15:58.360Z,67.83
2019-02-12T15:18:32.997Z,68.38
2019-02-12T15:21:07.898Z,68.54
2019-02-12T15:23:42.665Z,67.56
2019-02-12T15:26:18.520Z,68.49
2019-02-12T15:28:52.150Z,67.57
2019-02-12T15:31:25.995Z,67.87
2019-02-12T15:34:01.234Z,68.71
2019-02-12T15:36:36.176Z,68.31
2019-02-12T15:39:10.255Z,67.42
2019-02-12T15:41:44.468Z,68.56
2019-02-12T15:44:19.232Z,68.94
2019-02-12T15:46:53.093Z,68.70
2019-02-12T22:51:07.211Z,66.51
2019-02-12T22:53:39.362Z,66.17
2019-02-12T22:56:12.235Z,67.12
2019-02-12T22:58:44.839Z,67.65
2019-02-12T23:01:17.176Z,68.87
2019-02-12T23:03:50.073Z,69.00
2019-02-12T23:06:23.313Z,69.67
2019-02-12T23:08:55.318Z,69.57
2019-02-12T23:11:27.630Z,70.04
2019-02-12T23:14:13.279Z,70.36
2019-02-12T23:16:58.804Z,70.11
2019-02-12T23:19:39.715Z,70.21
2019-02-12T23:22:14.503Z,70.25
2019-02-12T23:24:47.804Z,70.34
2019-02-12T23:27:19.962Z,70.09
2019-02-12T23:29:52.141Z,70.18
2019-02-12T23:32:24.068Z,70.30
2019-02-12T23:34:57.300Z,69.67
2019-02-12T23:37:30.043Z,69.73
2019-02-12T23:40:04.316Z,70.24
2019-02-12T23:42:38.271Z,69.69
2019-02-12T23:45:12.504Z,69.32
2019-02-12T23:47:46.490Z,69.38
2019-02-12T23:50:20.705Z,69.87
2019-02-12T23:52:54.280Z,69.74
2019-02-12T23:55:28.323Z,69.25
2019-02-12T23:58:06.027Z,69.02
